Terminal Aerodrome Forecast
Issued by NWS

Home | Current Version | Previous Version | Text Only | Print | Product List | Glossary On
Versions: 1 2 3 4 5 6 7 8 9 10 11 12 13 14 15 16 17 18 19 20
000
FTUS44 KCRP 230500
TAFALI
TAF
KALI 230521Z 2306/2406 22006KT P6SM SCT100
      TEMPO 2309/2313 4SM BR SCT001
     FM231400 27011KT P6SM SKC
     FM240000 30004KT P6SM SKC=

USA.gov is the U.S. government's official web portal to all federal, state and local government web resources and services.